Beaver Creek, Illinois
Current Conditions -  °F | °C
As of 8:55 AM on Friday 28 Nov 2014 (Local Time) from K3LF Reporting Station
Clear Clear  
Wind Chill: 15°   Ceiling: Unl
Heat Index: 28°   Visibility: 7mi
Dew Point: 24°   Wind: 20mph
Humidity: 83%   Direction: 160°SSE
Pressure: 30.22"   Gusts: 23mph
Location:  38.895°N, 89.397°W
Report Text: K3LF 281455Z AUTO 16017G20KT 7SM CLR M02/M05 A3022 RMK AO2 T10221047
Loading
Personal Weather Stations






























Interactive Weather Map New forecast layout! Learn more

10-Day Weather Forecast

Advertisements
Track Severe Weather on mobile